Time;durP1;ratioP1;P1;durP2;ratioP2;P2;SDS_P1;SDS_P2;PMS_P1;PMS_P2;Temp;Humidity;BMP_temperature;BMP_pressure;BME280_temperature;BME280_humidity;BME280_pressure;Samples;Min_cycle;Max_cycle;Signal;HPM_P1;HPM_P2
2024/04/03 00:00:43;;;;;;;1.40;0.80;;;;;;;9.63;70.58;97567.47;5068578;28;20231;-78
2024/04/03 00:03:09;;;;;;;4.13;1.07;;;;;;;9.58;70.72;97563.47;5084129;28;20296;-78
2024/04/03 00:05:36;;;;;;;4.17;1.00;;;;;;;9.45;70.62;97573.25;5081374;28;20717;-79
2024/04/03 00:08:01;;;;;;;1.60;0.80;;;;;;;9.37;71.81;97573.78;5074169;28;20215;-77
2024/04/03 00:10:28;;;;;;;1.80;0.73;;;;;;;9.28;72.62;97571.00;5075053;28;20227;-77
2024/04/03 00:12:53;;;;;;;1.87;0.83;;;;;;;9.18;73.44;97570.00;5076396;28;20211;-77
2024/04/03 00:15:20;;;;;;;1.97;1.10;;;;;;;9.11;74.02;97566.13;5076689;28;20215;-77
2024/04/03 00:17:49;;;;;;;1.47;0.87;;;;;;;9.10;74.55;97572.31;5076949;28;20205;-78
2024/04/03 00:20:16;;;;;;;1.17;0.70;;;;;;;9.07;74.58;97568.09;5075999;28;20227;-78
2024/04/03 00:22:42;;;;;;;1.50;0.80;;;;;;;9.02;74.95;97559.72;5076859;28;20690;-77
2024/04/03 00:25:08;;;;;;;2.40;0.97;;;;;;;9.00;75.59;97572.16;5076560;28;20206;-77
2024/04/03 00:27:34;;;;;;;1.47;0.87;;;;;;;9.05;75.11;97574.47;5075855;28;20578;-77
2024/04/03 00:30:00;;;;;;;2.87;1.00;;;;;;;9.06;75.34;97570.88;5076018;28;20233;-77
2024/04/03 00:32:26;;;;;;;2.77;0.90;;;;;;;9.11;74.20;97564.31;5076462;28;20213;-78
2024/04/03 00:34:54;;;;;;;1.70;0.70;;;;;;;9.09;74.33;97570.66;5076062;28;20212;-78
2024/04/03 00:37:20;;;;;;;2.43;1.00;;;;;;;9.04;75.18;97570.13;5075844;28;20555;-78
2024/04/03 00:39:47;;;;;;;1.00;0.70;;;;;;;8.99;76.04;97574.91;5075790;28;20251;-78
2024/04/03 00:42:12;;;;;;;2.00;0.80;;;;;;;8.99;75.69;97553.81;5075408;28;20245;-78
2024/04/03 00:44:46;;;;;;;1.40;0.90;;;;;;;8.96;76.37;97554.03;5075777;28;20555;-78
2024/04/03 00:47:12;;;;;;;1.27;0.80;;;;;;;8.91;77.30;97561.41;5075243;28;20188;-78
2024/04/03 00:49:38;;;;;;;3.20;1.00;;;;;;;8.88;78.02;97559.84;5075254;28;20227;-78
2024/04/03 00:52:06;;;;;;;2.23;1.00;;;;;;;8.86;77.65;97547.72;5075096;28;20228;-78
2024/04/03 00:54:32;;;;;;;1.97;0.90;;;;;;;8.84;77.93;97547.00;5075202;28;20265;-78
2024/04/03 00:56:58;;;;;;;2.13;0.90;;;;;;;8.76;78.87;97537.00;5074998;28;20208;-78
2024/04/03 00:59:25;;;;;;;2.23;1.00;;;;;;;8.61;80.42;97555.69;5074989;28;20235;-78
2024/04/03 01:01:50;;;;;;;1.50;1.10;;;;;;;8.41;82.77;97557.09;5075290;28;20597;-78
2024/04/03 01:04:17;;;;;;;1.40;1.00;;;;;;;8.28;83.77;97569.44;5074965;28;20214;-78
2024/04/03 01:06:42;;;;;;;3.57;1.10;;;;;;;8.15;83.91;97565.09;5075765;28;20237;-78
2024/04/03 01:09:10;;;;;;;2.63;1.20;;;;;;;8.10;82.73;97562.78;5074260;28;20298;-77
2024/04/03 01:11:36;;;;;;;2.60;1.30;;;;;;;8.08;82.92;97558.56;5074617;28;20209;-78
2024/04/03 01:14:02;;;;;;;3.70;1.43;;;;;;;7.97;83.68;97555.81;5076568;28;20210;-78
2024/04/03 01:16:28;;;;;;;2.10;1.47;;;;;;;7.92;84.56;97555.28;5084427;28;20207;-79
2024/04/03 01:18:54;;;;;;;5.00;2.00;;;;;;;7.88;84.63;97564.31;5086315;28;20317;-79
2024/04/03 01:21:20;;;;;;;2.90;1.40;;;;;;;7.86;84.99;97558.31;5084151;28;20229;-79
2024/04/03 01:23:53;;;;;;;4.60;1.20;;;;;;;7.82;84.74;97557.69;5084969;28;20275;-79
2024/04/03 01:26:19;;;;;;;2.87;1.40;;;;;;;7.83;85.73;97548.00;5084227;28;20217;-79
2024/04/03 01:28:45;;;;;;;3.37;1.50;;;;;;;7.94;85.39;97540.22;5080922;28;20297;-78
2024/04/03 01:31:11;;;;;;;2.23;1.60;;;;;;;8.06;84.56;97540.22;5075472;28;20400;-78
2024/04/03 01:33:38;;;;;;;2.03;1.27;;;;;;;8.15;85.01;97538.75;5074872;28;20211;-78
2024/04/03 01:36:06;;;;;;;2.17;1.53;;;;;;;8.22;84.73;97529.53;5075657;28;20638;-79
2024/04/03 01:38:32;;;;;;;5.90;1.53;;;;;;;8.28;83.37;97526.47;5074862;28;20562;-78
2024/04/03 01:40:59;;;;;;;3.03;1.90;;;;;;;8.38;82.39;97515.19;5073864;28;20241;-78
2024/04/03 01:43:28;;;;;;;4.33;1.60;;;;;;;8.43;82.40;97510.44;5074504;28;20259;-78
2024/04/03 01:45:57;;;;;;;3.67;1.60;;;;;;;8.61;81.01;97489.84;5074075;28;20218;-78
2024/04/03 01:48:23;;;;;;;3.20;1.27;;;;;;;8.60;79.82;97494.28;5073497;28;20612;-79
2024/04/03 01:50:48;;;;;;;3.13;1.30;;;;;;;8.65;79.67;97486.03;5073242;28;20250;-78
2024/04/03 01:53:15;;;;;;;2.80;1.47;;;;;;;8.55;80.79;97495.53;5073966;28;20561;-78
2024/04/03 01:55:40;;;;;;;3.03;1.23;;;;;;;8.48;81.50;97499.56;5073723;28;20229;-78
2024/04/03 01:58:08;;;;;;;3.07;1.40;;;;;;;8.38;82.35;97506.47;5073700;28;20213;-78
2024/04/03 02:00:34;;;;;;;3.93;1.60;;;;;;;8.33;82.72;97500.66;5073613;28;20257;-78
2024/04/03 02:03:00;;;;;;;2.30;1.37;;;;;;;8.28;82.87;97514.16;5073835;28;20206;-78
2024/04/03 02:05:28;;;;;;;2.40;1.83;;;;;;;8.22;83.24;97513.72;5055801;28;20218;-78
2024/04/03 02:07:54;;;;;;;1.50;1.13;;;;;;;8.18;83.57;97512.22;5074347;28;20599;-78
2024/04/03 02:10:20;;;;;;;2.70;1.47;;;;;;;8.16;82.52;97504.44;5073652;28;20238;-78
2024/04/03 02:12:46;;;;;;;2.60;1.40;;;;;;;8.16;82.03;97495.69;5074414;28;20210;-78
2024/04/03 02:15:13;;;;;;;3.37;1.30;;;;;;;8.18;82.14;97497.28;5073908;28;20219;-78
2024/04/03 02:17:39;;;;;;;2.90;1.43;;;;;;;8.20;82.40;97497.22;5074071;28;20211;-78
2024/04/03 02:20:08;;;;;;;2.63;1.43;;;;;;;8.20;83.16;97500.66;5073401;28;20326;-78
2024/04/03 02:22:34;;;;;;;3.87;1.70;;;;;;;8.27;82.58;97496.66;5075352;28;20341;-78
2024/04/03 02:25:00;;;;;;;3.03;1.30;;;;;;;8.30;82.09;97479.81;5088758;28;20688;-78
2024/04/03 02:27:26;;;;;;;2.70;1.50;;;;;;;8.30;82.80;97493.81;5090459;28;20213;-78
2024/04/03 02:29:52;;;;;;;2.80;1.57;;;;;;;8.35;82.85;97490.84;5087376;28;20241;-78
2024/04/03 02:32:20;;;;;;;4.00;1.63;;;;;;;8.35;83.40;97493.50;5087611;28;20270;-81
2024/04/03 02:34:47;;;;;;;1.97;1.60;;;;;;;8.31;82.79;97478.84;5089489;28;20210;-78
2024/04/03 02:37:13;;;;;;;2.63;1.80;;;;;;;8.30;82.47;97485.06;5068531;28;20218;-79
2024/04/03 02:39:39;;;;;;;3.33;1.93;;;;;;;8.34;81.78;97476.00;5075360;28;20234;-79
2024/04/03 02:42:06;;;;;;;2.63;1.53;;;;;;;8.44;81.58;97471.78;5072904;28;20239;-79
2024/04/03 02:44:31;;;;;;;3.93;1.70;;;;;;;8.50;80.56;97461.66;5072448;28;20590;-79
2024/04/03 02:46:58;;;;;;;3.60;1.60;;;;;;;8.53;80.50;97460.59;5073802;28;20213;-79
2024/04/03 02:49:25;;;;;;;4.50;1.67;;;;;;;8.50;82.25;97466.91;5073780;28;20211;-79
2024/04/03 02:51:51;;;;;;;4.13;1.50;;;;;;;8.44;84.12;97469.97;5072768;28;20206;-79
2024/04/03 02:54:17;;;;;;;2.60;1.60;;;;;;;8.43;85.06;97470.09;5072783;28;20214;-79
2024/04/03 02:56:43;;;;;;;2.87;1.50;;;;;;;8.47;85.46;97476.81;5072644;28;20531;-79
2024/04/03 02:59:09;;;;;;;4.10;1.87;;;;;;;8.45;85.44;97468.19;5072197;28;20217;-79
2024/04/03 03:01:35;;;;;;;3.83;1.50;;;;;;;8.46;84.78;97468.06;5077827;28;20226;-79
2024/04/03 03:04:02;;;;;;;1.60;1.20;;;;;;;8.46;83.70;97460.16;5078977;28;20670;-79
2024/04/03 03:06:30;;;;;;;2.13;1.30;;;;;;;8.45;83.55;97455.84;5079762;28;20248;-79
2024/04/03 03:08:56;;;;;;;2.17;1.40;;;;;;;8.48;83.11;97446.91;5078793;28;20221;-79
2024/04/03 03:11:22;;;;;;;1.30;1.00;;;;;;;8.49;83.36;97448.56;5078518;28;20237;-79
2024/04/03 03:13:48;;;;;;;1.83;1.10;;;;;;;8.50;83.16;97445.84;5078973;28;20215;-79
2024/04/03 03:16:20;;;;;;;1.83;1.30;;;;;;;8.48;84.10;97449.53;5078679;28;20203;-79
2024/04/03 03:18:47;;;;;;;2.43;1.10;;;;;;;8.47;83.99;97440.81;5078652;28;20214;-79
2024/04/03 03:21:12;;;;;;;2.33;1.27;;;;;;;8.51;83.13;97425.63;5078437;28;20256;-79
2024/04/03 03:23:40;;;;;;;1.83;1.33;;;;;;;8.47;83.78;97417.13;5078988;28;20208;-79
2024/04/03 03:26:06;;;;;;;2.20;1.27;;;;;;;8.48;83.57;97423.19;5079226;28;20214;-79
2024/04/03 03:28:32;;;;;;;1.83;1.30;;;;;;;8.47;83.91;97416.25;5079005;28;20210;-78
2024/04/03 03:30:58;;;;;;;1.93;1.30;;;;;;;8.49;83.92;97411.72;5078791;28;20234;-79
2024/04/03 03:33:26;;;;;;;2.07;1.17;;;;;;;8.46;84.46;97407.50;5079163;28;20214;-79
2024/04/03 03:35:56;;;;;;;1.50;1.00;;;;;;;8.47;84.89;97411.00;5079342;28;20227;-79
2024/04/03 03:38:23;;;;;;;1.83;1.00;;;;;;;8.47;85.14;97409.22;5079065;28;20250;-79
2024/04/03 03:40:51;;;;;;;2.50;1.30;;;;;;;8.45;85.42;97410.28;5078630;28;20253;-79
2024/04/03 03:43:18;;;;;;;2.30;1.30;;;;;;;8.45;85.86;97412.91;5082382;28;20216;-79
2024/04/03 03:45:45;;;;;;;2.30;1.27;;;;;;;8.53;85.82;97402.66;5074290;28;20260;-79
2024/04/03 03:48:12;;;;;;;2.53;1.17;;;;;;;8.49;85.13;97390.66;5090875;28;20215;-79
2024/04/03 03:53:25;;;;;;;3.53;1.57;;;;;;;8.52;83.85;97379.91;5081949;28;20295;-79
2024/04/03 03:55:56;;;;;;;1.50;1.10;;;;;;;8.52;83.89;97386.00;5079003;28;20208;-79
2024/04/03 03:58:22;;;;;;;1.80;1.07;;;;;;;8.52;83.66;97374.63;5078622;28;20211;-79
2024/04/03 04:00:49;;;;;;;1.40;1.07;;;;;;;8.50;83.30;97368.66;5078536;28;20234;-79
2024/04/03 04:03:15;;;;;;;1.43;1.20;;;;;;;8.52;83.03;97374.63;5078597;28;20207;-79
2024/04/03 04:05:41;;;;;;;2.57;1.37;;;;;;;8.51;83.08;97379.06;5078631;28;20214;-79
2024/04/03 04:08:07;;;;;;;2.13;1.37;;;;;;;8.50;83.38;97379.19;5078546;28;20298;-79
2024/04/03 04:10:33;;;;;;;1.00;0.90;;;;;;;8.51;83.56;97372.97;5080130;28;20231;-79
2024/04/03 04:13:01;;;;;;;2.30;1.37;;;;;;;8.50;83.31;97372.09;5077467;28;20626;-79
2024/04/03 04:15:26;;;;;;;2.20;1.17;;;;;;;8.50;83.41;97373.91;5077601;28;20224;-79
2024/04/03 04:17:53;;;;;;;2.17;1.13;;;;;;;8.46;84.08;97369.81;5076245;28;20571;-79
2024/04/03 04:20:19;;;;;;;2.60;1.13;;;;;;;8.46;84.02;97372.44;5074825;28;20318;-79
2024/04/03 04:22:45;;;;;;;6.17;1.67;;;;;;;8.43;84.47;97380.56;5074980;28;20227;-79
2024/04/03 04:25:11;;;;;;;1.33;1.20;;;;;;;8.44;84.14;97382.25;5074802;28;20207;-79
2024/04/03 04:27:38;;;;;;;2.33;1.27;;;;;;;8.43;84.30;97380.56;5075194;28;20249;-79
2024/04/03 04:30:06;;;;;;;2.10;1.20;;;;;;;8.39;85.03;97389.66;5074863;28;20231;-79
2024/04/03 04:32:33;;;;;;;1.63;1.33;;;;;;;8.35;85.98;97385.53;5074806;28;20253;-79
2024/04/03 04:34:58;;;;;;;2.63;1.60;;;;;;;8.29;87.23;97391.25;5074641;28;20214;-79
2024/04/03 04:37:25;;;;;;;3.23;2.00;;;;;;;8.24;89.16;97406.53;5074981;28;20220;-78
2024/04/03 04:39:53;;;;;;;3.37;1.70;;;;;;;8.20;90.57;97405.09;5074937;28;20243;-78
2024/04/03 04:42:20;;;;;;;2.43;1.53;;;;;;;8.14;91.01;97397.59;5074584;28;20253;-78
2024/04/03 04:44:46;;;;;;;2.67;1.60;;;;;;;8.10;92.10;97401.38;5074735;28;20215;-78
2024/04/03 04:47:13;;;;;;;2.60;1.87;;;;;;;8.11;92.63;97401.28;5080352;28;20215;-78
2024/04/03 04:49:39;;;;;;;2.83;1.70;;;;;;;8.11;92.43;97395.16;5075619;28;20318;-78
2024/04/03 04:52:06;;;;;;;2.97;1.60;;;;;;;8.17;90.82;97385.06;5057056;28;20740;-78
2024/04/03 04:54:31;;;;;;;1.57;1.30;;;;;;;8.21;89.06;97380.44;5074736;28;20210;-78
2024/04/03 04:57:01;;;;;;;3.13;1.60;;;;;;;8.22;87.48;97372.44;5074679;28;20625;-78
2024/04/03 04:59:26;;;;;;;2.33;1.57;;;;;;;8.21;87.50;97369.91;5074837;28;20233;-78
2024/04/03 05:01:53;;;;;;;4.20;1.47;;;;;;;8.20;87.96;97373.50;5075064;28;20226;-78
2024/04/03 05:04:20;;;;;;;1.93;1.20;;;;;;;8.22;87.67;97371.59;5085965;28;20249;-79
2024/04/03 05:06:47;;;;;;;3.23;1.60;;;;;;;8.27;87.71;97369.47;5091885;28;20280;-79
2024/04/03 05:09:12;;;;;;;4.87;1.73;;;;;;;8.25;87.74;97373.97;5088727;28;20217;-79
2024/04/03 05:11:39;;;;;;;1.80;1.40;;;;;;;8.26;87.64;97383.59;5095055;28;20198;-78
2024/04/03 05:14:04;;;;;;;2.77;1.67;;;;;;;8.33;87.46;97387.47;5098787;28;20187;-78
2024/04/03 05:16:31;;;;;;;2.30;1.40;;;;;;;8.42;87.15;97378.88;5097192;28;20207;-78
2024/04/03 05:18:56;;;;;;;2.97;1.57;;;;;;;8.44;85.76;97377.81;5092734;28;20199;-78
2024/04/03 05:21:24;;;;;;;3.20;1.83;;;;;;;8.50;85.38;97372.09;5091710;28;20239;-78
2024/04/03 05:23:50;;;;;;;2.60;1.40;;;;;;;8.63;85.02;97372.06;5090399;28;20194;-78
2024/04/03 05:26:17;;;;;;;1.83;1.47;;;;;;;8.68;84.50;97369.91;5077244;28;20298;-77
2024/04/03 05:28:43;;;;;;;1.90;1.40;;;;;;;8.69;84.22;97376.88;5074399;28;20206;-79
2024/04/03 05:31:10;;;;;;;2.90;1.90;;;;;;;8.73;83.64;97373.91;5075234;28;20257;-79
2024/04/03 05:33:37;;;;;;;3.63;1.80;;;;;;;8.73;83.22;97379.19;5074802;28;20612;-79
2024/04/03 05:36:05;;;;;;;4.57;1.70;;;;;;;8.79;83.65;97383.13;5074350;28;20300;-78
2024/04/03 05:38:32;;;;;;;4.83;2.63;;;;;;;8.82;83.12;97377.66;5074844;28;20265;-78
2024/04/03 05:40:59;;;;;;;3.80;1.87;;;;;;;8.86;82.73;97373.81;5075313;28;20233;-79
2024/04/03 05:43:25;;;;;;;3.00;1.80;;;;;;;8.89;83.55;97384.16;5084218;28;20238;-79
2024/04/03 05:45:53;;;;;;;3.20;1.53;;;;;;;8.91;84.60;97390.13;5097314;28;20222;-78
2024/04/03 05:48:19;;;;;;;3.87;2.23;;;;;;;8.97;85.00;97392.31;5097252;28;20203;-78
2024/04/03 05:50:46;;;;;;;2.83;1.60;;;;;;;9.01;84.04;97384.06;5097678;28;20226;-79
2024/04/03 05:53:11;;;;;;;2.70;1.40;;;;;;;9.10;83.56;97382.53;5097952;28;20274;-79
2024/04/03 05:55:39;;;;;;;2.23;1.70;;;;;;;9.18;82.92;97374.91;5097814;28;20191;-78
2024/04/03 05:58:05;;;;;;;2.70;1.50;;;;;;;9.25;81.86;97376.13;5097785;28;20206;-79
2024/04/03 06:00:31;;;;;;;1.87;1.27;;;;;;;9.30;81.53;97373.97;5097395;28;20217;-78
2024/04/03 06:02:57;;;;;;;1.60;1.20;;;;;;;9.38;80.62;97376.88;5097122;28;20239;-79
2024/04/03 06:05:23;;;;;;;3.50;1.30;;;;;;;9.47;79.82;97370.88;5097683;28;20192;-78
2024/04/03 06:07:49;;;;;;;1.93;1.30;;;;;;;9.52;79.55;97372.22;5080244;28;20192;-78
2024/04/03 06:10:16;;;;;;;2.67;1.60;;;;;;;9.57;78.74;97374.50;5097429;28;20221;-78
2024/04/03 06:12:43;;;;;;;2.43;1.30;;;;;;;9.64;77.43;97368.63;5097504;28;20234;-79
2024/04/03 06:15:09;;;;;;;1.70;1.10;;;;;;;9.63;75.00;97353.78;5097367;28;20212;-77
2024/04/03 06:17:35;;;;;;;1.43;1.10;;;;;;;9.63;74.76;97359.03;5097459;28;20259;-77
2024/04/03 06:20:02;;;;;;;2.53;0.90;;;;;;;9.66;73.92;97355.34;5096648;28;20211;-78
2024/04/03 06:22:27;;;;;;;1.23;0.80;;;;;;;9.73;74.89;97361.81;5097231;28;20250;-78
2024/04/03 06:24:54;;;;;;;1.53;0.70;;;;;;;9.66;79.13;97402.81;5097277;28;20188;-78
2024/04/03 06:27:19;;;;;;;1.33;0.97;;;;;;;9.60;86.06;97453.41;5096648;28;20192;-78
2024/04/03 06:29:47;;;;;;;1.80;0.70;;;;;;;9.53;87.45;97465.38;5096556;28;20242;-78
2024/04/03 06:32:13;;;;;;;1.00;0.67;;;;;;;9.56;85.58;97455.44;5091429;28;20294;-78
2024/04/03 06:34:39;;;;;;;0.83;0.70;;;;;;;9.61;86.78;97463.00;5087294;28;20203;-78
2024/04/03 06:37:05;;;;;;;3.13;0.90;;;;;;;9.59;88.94;97456.97;5087147;28;20234;-77
2024/04/03 06:39:31;;;;;;;2.50;0.80;;;;;;;9.58;93.21;97479.06;5090159;28;20227;-77
2024/04/03 06:41:57;;;;;;;0.77;0.70;;;;;;;9.52;97.71;97468.97;5088847;28;20235;-78
2024/04/03 06:44:23;;;;;;;1.67;0.77;;;;;;;9.47;98.28;97447.34;5096432;28;20274;-79
2024/04/03 06:46:50;;;;;;;0.67;0.60;;;;;;;9.42;99.40;97462.72;5083920;28;20321;-78
2024/04/03 06:49:17;;;;;;;1.93;0.80;;;;;;;9.34;100.00;97460.66;5079680;28;20261;-78
2024/04/03 06:51:42;;;;;;;0.83;0.77;;;;;;;9.35;100.00;97464.09;5088865;28;20266;-77
2024/04/03 06:54:09;;;;;;;1.50;0.97;;;;;;;9.37;100.00;97464.84;5089343;28;20214;-79
2024/04/03 06:56:34;;;;;;;2.73;0.83;;;;;;;9.39;100.00;97462.94;5086582;28;20241;-78
2024/04/03 06:59:02;;;;;;;1.70;1.00;;;;;;;9.50;100.00;97470.88;5088560;28;20203;-78
2024/04/03 07:01:27;;;;;;;1.43;1.00;;;;;;;9.51;100.00;97477.84;5096307;28;20211;-78
2024/04/03 07:03:56;;;;;;;2.07;0.90;;;;;;;9.53;100.00;97500.50;5096838;28;20198;-78
2024/04/03 07:06:21;;;;;;;1.03;0.90;;;;;;;9.54;100.00;97496.09;5097049;28;20252;-78
2024/04/03 07:08:49;;;;;;;2.23;0.87;;;;;;;9.48;100.00;97505.28;5096667;28;20198;-78
2024/04/03 07:11:15;;;;;;;1.20;0.90;;;;;;;9.47;100.00;97514.16;5076237;28;20211;-79
2024/04/03 07:13:41;;;;;;;4.33;1.20;;;;;;;9.45;100.00;97523.13;5076757;28;20207;-77
2024/04/03 07:16:07;;;;;;;1.33;1.00;;;;;;;9.42;100.00;97531.28;5076769;28;20261;-79
2024/04/03 07:18:33;;;;;;;1.33;0.80;;;;;;;9.41;100.00;97529.56;5076136;28;20202;-77
2024/04/03 07:21:00;;;;;;;1.03;0.90;;;;;;;9.39;100.00;97523.59;5076180;28;20282;-79
2024/04/03 07:23:28;;;;;;;1.33;0.97;;;;;;;9.39;100.00;97528.84;5076575;28;20254;-78
2024/04/03 07:25:55;;;;;;;2.47;1.07;;;;;;;9.43;100.00;97530.31;5076257;28;20263;-78
2024/04/03 07:28:22;;;;;;;3.07;1.17;;;;;;;9.41;100.00;97524.31;5072407;28;20208;-79
2024/04/03 07:30:48;;;;;;;1.53;0.97;;;;;;;9.47;100.00;97516.78;5061569;28;20327;-79
2024/04/03 07:33:14;;;;;;;2.57;1.00;;;;;;;9.48;100.00;97522.91;5062191;28;20215;-80
2024/04/03 07:35:41;;;;;;;1.83;1.10;;;;;;;9.53;100.00;97523.38;5063106;28;20208;-79
2024/04/03 07:38:11;;;;;;;2.27;0.90;;;;;;;9.64;100.00;97526.94;5063273;28;20216;-79
2024/04/03 07:40:38;;;;;;;1.10;1.00;;;;;;;9.73;100.00;97526.22;5062339;28;20224;-79
2024/04/03 07:43:03;;;;;;;1.57;0.90;;;;;;;9.85;100.00;97524.47;5062103;28;20236;-79
2024/04/03 07:45:30;;;;;;;2.50;1.17;;;;;;;9.92;100.00;97515.94;5061336;28;20301;-79
2024/04/03 07:47:57;;;;;;;1.00;0.83;;;;;;;10.01;100.00;97514.41;5063254;28;20669;-79
2024/04/03 07:50:24;;;;;;;1.57;0.80;;;;;;;10.04;100.00;97514.22;5064328;28;20254;-79
2024/04/03 07:52:49;;;;;;;1.97;0.90;;;;;;;10.16;100.00;97508.81;5065209;28;20229;-79
2024/04/03 07:55:17;;;;;;;2.03;0.90;;;;;;;10.23;100.00;97503.91;5064566;28;20238;-79
2024/04/03 07:57:43;;;;;;;1.07;0.87;;;;;;;10.25;100.00;97508.13;5063937;28;20209;-79
2024/04/03 08:00:10;;;;;;;1.20;1.10;;;;;;;10.23;100.00;97502.13;5062908;28;20231;-79
2024/04/03 08:02:37;;;;;;;1.80;1.00;;;;;;;10.17;100.00;97509.69;5063364;28;20238;-79
2024/04/03 08:05:04;;;;;;;1.73;1.10;;;;;;;10.11;100.00;97511.00;5076509;28;20208;-79
2024/04/03 08:07:30;;;;;;;1.73;1.10;;;;;;;10.13;100.00;97508.22;5082004;28;20582;-79
2024/04/03 08:09:56;;;;;;;1.77;0.93;;;;;;;10.14;100.00;97508.13;5082535;28;20258;-79
2024/04/03 08:12:23;;;;;;;1.53;0.80;;;;;;;10.17;100.00;97507.03;5082350;28;20199;-79
2024/04/03 08:14:50;;;;;;;1.10;1.00;;;;;;;10.23;100.00;97503.91;5082334;28;20275;-79
2024/04/03 08:17:15;;;;;;;1.67;0.90;;;;;;;10.35;100.00;97503.78;5082376;28;20204;-79
2024/04/03 08:19:42;;;;;;;1.03;0.80;;;;;;;10.42;100.00;97498.88;5082813;28;20261;-79
2024/04/03 08:22:07;;;;;;;0.73;0.60;;;;;;;10.49;100.00;97498.28;5083248;28;20234;-79
2024/04/03 08:24:34;;;;;;;1.30;0.90;;;;;;;10.53;100.00;97497.06;5084281;28;20652;-79
2024/04/03 08:26:59;;;;;;;2.60;1.00;;;;;;;10.61;100.00;97493.81;5084627;28;20218;-79
2024/04/03 08:29:27;;;;;;;1.13;0.77;;;;;;;10.67;100.00;97483.63;5084413;28;20237;-79
2024/04/03 08:31:53;;;;;;;0.77;0.70;;;;;;;10.76;100.00;97482.88;5084774;28;20214;-79
2024/04/03 08:34:19;;;;;;;1.20;0.80;;;;;;;10.87;100.00;97474.06;5087215;28;20274;-79
2024/04/03 08:36:45;;;;;;;1.23;0.80;;;;;;;10.96;100.00;97462.78;5087099;28;20217;-79
2024/04/03 08:39:11;;;;;;;1.67;1.23;;;;;;;11.08;100.00;97453.84;5087182;28;20227;-79
2024/04/03 08:41:37;;;;;;;1.60;0.90;;;;;;;11.20;100.00;97437.78;5087660;28;20204;-79
2024/04/03 08:44:04;;;;;;;0.73;0.60;;;;;;;11.33;99.49;97414.66;5086447;28;20231;-80
2024/04/03 08:46:32;;;;;;;1.13;0.60;;;;;;;11.39;95.45;97405.38;5087024;28;20214;-80
2024/04/03 08:48:59;;;;;;;1.63;0.90;;;;;;;11.43;95.89;97410.25;5087042;28;20204;-79
2024/04/03 08:51:28;;;;;;;0.60;0.60;;;;;;;11.53;95.62;97418.28;5085921;28;20237;-79
2024/04/03 08:54:04;;;;;;;0.80;0.70;;;;;;;11.65;94.86;97414.63;5085198;28;20212;-79
2024/04/03 08:56:30;;;;;;;0.80;0.70;;;;;;;11.81;94.98;97415.00;5085666;28;20270;-78
2024/04/03 08:58:57;;;;;;;1.67;0.73;;;;;;;11.93;95.06;97413.97;5084643;28;20219;-80
2024/04/03 09:01:23;;;;;;;0.70;0.70;;;;;;;12.00;93.64;97415.09;5084377;28;20249;-79
2024/04/03 09:03:51;;;;;;;1.20;0.70;;;;;;;12.07;92.58;97395.06;5084880;28;20641;-80
2024/04/03 09:06:16;;;;;;;1.23;1.00;;;;;;;12.20;88.65;97377.13;5084684;28;20210;-80
2024/04/03 09:08:44;;;;;;;1.37;0.70;;;;;;;12.28;89.67;97387.91;5085306;28;20272;-80
2024/04/03 09:11:11;;;;;;;0.93;0.73;;;;;;;12.34;89.36;97382.91;5085096;28;20239;-81
2024/04/03 09:13:37;;;;;;;1.90;0.83;;;;;;;12.44;88.04;97367.03;5085213;28;20317;-81
2024/04/03 09:16:03;;;;;;;2.50;1.10;;;;;;;12.68;83.91;97355.09;5083849;28;20207;-80
2024/04/03 09:18:30;;;;;;;2.40;0.90;;;;;;;12.79;80.92;97335.56;5085220;28;20205;-80
2024/04/03 09:21:02;;;;;;;1.83;0.97;;;;;;;12.92;83.31;97352.88;5085979;28;20241;-80
2024/04/03 09:23:31;;;;;;;1.37;0.90;;;;;;;12.96;80.85;97341.03;5084300;28;20717;-80
2024/04/03 09:26:04;;;;;;;2.30;0.90;;;;;;;13.09;80.82;97359.31;5086331;28;20208;-79
2024/04/03 09:28:31;;;;;;;0.80;0.80;;;;;;;13.21;80.46;97350.25;5081636;28;20311;-77
2024/04/03 09:30:56;;;;;;;1.80;0.90;;;;;;;13.35;79.05;97339.19;5073363;28;20234;-77
2024/04/03 09:33:26;;;;;;;1.77;0.77;;;;;;;13.55;78.79;97340.81;5074046;28;20216;-78
2024/04/03 09:35:51;;;;;;;1.53;1.10;;;;;;;13.78;78.25;97336.84;5073805;28;20348;-77
2024/04/03 09:38:19;;;;;;;0.80;0.80;;;;;;;14.02;73.81;97302.63;5073580;28;20221;-78
2024/04/03 09:40:48;;;;;;;1.67;0.90;;;;;;;14.19;74.20;97313.34;5075166;28;20225;-77
2024/04/03 09:43:15;;;;;;;1.10;0.90;;;;;;;14.48;70.46;97289.25;5072839;28;20230;-78
2024/04/03 09:45:41;;;;;;;1.00;0.70;;;;;;;14.67;70.48;97299.75;5072489;28;20216;-78
2024/04/03 09:48:09;;;;;;;2.47;0.90;;;;;;;14.86;69.77;97296.94;5072906;28;20254;-78
2024/04/03 09:50:36;;;;;;;1.77;0.90;;;;;;;14.98;68.69;97285.09;5072695;28;20230;-77
2024/04/03 09:53:06;;;;;;;2.73;1.00;;;;;;;15.31;67.22;97274.53;5072969;28;20214;-77
2024/04/03 09:55:36;;;;;;;2.17;0.77;;;;;;;15.62;65.11;97258.94;5072997;28;20218;-77
2024/04/03 09:58:03;;;;;;;1.90;0.93;;;;;;;15.82;65.51;97265.72;5074809;28;20215;-78
2024/04/03 10:00:29;;;;;;;1.70;1.13;;;;;;;16.02;64.68;97269.81;5075665;28;20238;-78
2024/04/03 10:02:56;;;;;;;1.83;1.17;;;;;;;16.15;61.83;97233.72;5097708;28;20316;-80
2024/04/03 10:05:32;;;;;;;1.10;0.90;;;;;;;16.09;61.74;97229.84;5097777;28;20254;-79
2024/04/03 10:08:10;;;;;;;1.43;1.13;;;;;;;15.98;60.86;97232.78;5097712;28;20193;-80
2024/04/03 10:10:43;;;;;;;1.23;0.90;;;;;;;15.85;59.95;97209.44;5096846;28;20218;-80
2024/04/03 10:13:12;;;;;;;3.13;1.00;;;;;;;15.65;60.47;97216.84;5097696;28;20183;-79
2024/04/03 10:15:38;;;;;;;1.93;0.80;;;;;;;15.50;62.35;97237.06;5097590;28;20270;-79
2024/04/03 10:18:07;;;;;;;3.77;0.87;;;;;;;15.29;63.58;97254.38;5092955;28;20198;-79
2024/04/03 10:20:37;;;;;;;2.13;1.17;;;;;;;15.05;61.11;97230.25;5095425;28;20249;-79
2024/04/03 10:23:07;;;;;;;0.60;0.60;;;;;;;14.84;61.12;97211.97;5097567;28;20232;-79
2024/04/03 10:25:34;;;;;;;2.77;0.70;;;;;;;14.73;60.08;97214.84;5097469;28;20247;-79
2024/04/03 10:28:03;;;;;;;1.23;0.80;;;;;;;14.60;61.95;97233.03;5080016;28;20211;-78
2024/04/03 10:30:28;;;;;;;0.60;0.60;;;;;;;14.46;62.02;97230.91;5080125;28;20214;-78
2024/04/03 10:32:55;;;;;;;0.70;0.40;;;;;;;14.33;62.80;97249.06;5097360;28;20198;-78
2024/04/03 10:35:21;;;;;;;1.00;0.70;;;;;;;14.12;62.77;97240.47;5097165;28;20182;-78
2024/04/03 10:37:47;;;;;;;0.57;0.50;;;;;;;13.91;65.67;97273.59;5096053;28;20218;-78
2024/04/03 10:40:13;;;;;;;1.73;0.60;;;;;;;13.69;68.41;97298.72;5091075;28;20264;-78
2024/04/03 10:42:40;;;;;;;1.23;0.60;;;;;;;13.51;70.34;97320.84;5090065;28;20229;-77
2024/04/03 10:45:08;;;;;;;0.77;0.60;;;;;;;13.50;70.38;97314.69;5094913;28;20195;-79
2024/04/03 10:47:35;;;;;;;0.50;0.40;;;;;;;13.53;70.75;97316.22;5096522;28;20236;-77
2024/04/03 10:50:00;;;;;;;0.50;0.50;;;;;;;13.48;72.00;97323.78;5096978;28;20219;-78
2024/04/03 10:52:28;;;;;;;0.70;0.50;;;;;;;13.49;70.63;97325.44;5097190;28;20190;-78
2024/04/03 10:54:53;;;;;;;0.40;0.40;;;;;;;13.47;70.03;97319.47;5097312;28;20215;-78
2024/04/03 10:57:21;;;;;;;0.53;0.40;;;;;;;13.50;68.89;97303.25;5097279;28;20261;-78
2024/04/03 10:59:46;;;;;;;0.57;0.40;;;;;;;13.59;69.41;97311.19;5096432;28;20241;-81
2024/04/03 11:02:16;;;;;;;0.40;0.40;;;;;;;13.63;70.19;97325.03;5096064;28;20225;-83
2024/04/03 11:04:43;;;;;;;0.60;0.30;;;;;;;13.59;69.57;97305.03;5085045;28;20217;-80
2024/04/03 11:07:14;;;;;;;0.33;0.33;;;;;;;13.63;71.26;97346.25;5084219;28;20296;-79
2024/04/03 11:09:40;;;;;;;0.40;0.40;;;;;;;13.65;71.53;97336.31;5084623;28;20232;-79
2024/04/03 11:12:07;;;;;;;0.40;0.40;;;;;;;13.68;71.58;97336.06;5084847;28;20212;-79
2024/04/03 11:14:32;;;;;;;0.40;0.40;;;;;;;13.66;70.51;97330.03;5083796;28;20221;-79
2024/04/03 11:16:59;;;;;;;0.40;0.40;;;;;;;13.55;70.37;97314.25;5084196;28;20228;-78
2024/04/03 11:19:26;;;;;;;0.30;0.30;;;;;;;13.56;71.84;97331.91;5084210;28;20245;-78
2024/04/03 11:21:52;;;;;;;0.60;0.40;;;;;;;13.53;69.35;97297.66;5085777;28;20222;-79
2024/04/03 11:24:18;;;;;;;0.40;0.40;;;;;;;13.45;67.94;97297.53;5087738;28;20228;-79
2024/04/03 11:26:46;;;;;;;0.50;0.30;;;;;;;13.50;69.19;97285.50;5086427;28;20794;-78
2024/04/03 11:29:26;;;;;;;0.50;0.50;;;;;;;13.48;67.66;97297.25;5087028;28;20201;-79
2024/04/03 11:31:52;;;;;;;0.50;0.40;;;;;;;13.42;67.60;97297.81;5087036;28;20233;-79
2024/04/03 11:34:18;;;;;;;0.80;0.40;;;;;;;13.37;69.15;97315.97;5087526;28;20214;-79
2024/04/03 11:36:46;;;;;;;0.30;0.30;;;;;;;13.44;69.91;97320.59;5069842;28;20263;-79